sensor_id;sensor_type;location;lat;lon;timestamp;pressure;altitude;pressure_sealevel;temperature;humidity
10606;BME280;5350;42.698;23.148;2023-04-08T00:02:15;93710.28;;;5.35;90.19
10606;BME280;5350;42.698;23.148;2023-04-08T00:04:41;93706.09;;;5.34;90.52
10606;BME280;5350;42.698;23.148;2023-04-08T00:07:08;93707.41;;;5.37;91.45
10606;BME280;5350;42.698;23.148;2023-04-08T00:09:35;93697.25;;;5.40;91.85
10606;BME280;5350;42.698;23.148;2023-04-08T00:12:03;93703.00;;;5.42;90.81
10606;BME280;5350;42.698;23.148;2023-04-08T00:14:29;93700.38;;;5.37;91.70
10606;BME280;5350;42.698;23.148;2023-04-08T00:16:57;93711.34;;;5.39;92.03
10606;BME280;5350;42.698;23.148;2023-04-08T00:19:24;93706.66;;;5.41;92.43
10606;BME280;5350;42.698;23.148;2023-04-08T00:21:51;93698.34;;;5.44;92.97
10606;BME280;5350;42.698;23.148;2023-04-08T00:24:18;93702.22;;;5.47;93.01
10606;BME280;5350;42.698;23.148;2023-04-08T00:26:45;93693.38;;;5.48;92.28
10606;BME280;5350;42.698;23.148;2023-04-08T00:29:11;93692.03;;;5.40;92.82
10606;BME280;5350;42.698;23.148;2023-04-08T00:31:38;93698.25;;;5.34;93.41
10606;BME280;5350;42.698;23.148;2023-04-08T00:34:06;93696.19;;;5.36;93.69
10606;BME280;5350;42.698;23.148;2023-04-08T00:36:33;93696.72;;;5.33;94.22
10606;BME280;5350;42.698;23.148;2023-04-08T00:39:00;93696.19;;;5.31;94.33
10606;BME280;5350;42.698;23.148;2023-04-08T00:41:28;93699.28;;;5.28;94.35
10606;BME280;5350;42.698;23.148;2023-04-08T00:43:55;93700.34;;;5.27;94.84
10606;BME280;5350;42.698;23.148;2023-04-08T00:46:21;93703.44;;;5.24;95.13
10606;BME280;5350;42.698;23.148;2023-04-08T00:48:48;93700.56;;;5.26;95.14
10606;BME280;5350;42.698;23.148;2023-04-08T00:51:16;93703.72;;;5.28;95.48
10606;BME280;5350;42.698;23.148;2023-04-08T00:53:43;93694.38;;;5.32;94.33
10606;BME280;5350;42.698;23.148;2023-04-08T00:56:10;93702.97;;;5.32;93.57
10606;BME280;5350;42.698;23.148;2023-04-08T00:58:37;93705.06;;;5.35;93.02
10606;BME280;5350;42.698;23.148;2023-04-08T01:01:11;93699.25;;;5.18;92.47
10606;BME280;5350;42.698;23.148;2023-04-08T01:03:46;93703.47;;;5.29;91.32
10606;BME280;5350;42.698;23.148;2023-04-08T01:06:21;93696.59;;;5.13;91.64
10606;BME280;5350;42.698;23.148;2023-04-08T01:08:52;93704.66;;;5.07;93.29
10606;BME280;5350;42.698;23.148;2023-04-08T01:11:19;93711.16;;;5.04;93.87
10606;BME280;5350;42.698;23.148;2023-04-08T01:13:48;93715.25;;;4.90;93.61
10606;BME280;5350;42.698;23.148;2023-04-08T01:16:18;93710.47;;;4.77;94.79
10606;BME280;5350;42.698;23.148;2023-04-08T01:18:45;93710.97;;;4.74;95.64
10606;BME280;5350;42.698;23.148;2023-04-08T01:21:15;93706.81;;;4.78;96.71
10606;BME280;5350;42.698;23.148;2023-04-08T01:23:53;93705.28;;;4.82;96.85
10606;BME280;5350;42.698;23.148;2023-04-08T01:26:28;93712.66;;;4.90;96.84
10606;BME280;5350;42.698;23.148;2023-04-08T01:28:58;93704.31;;;4.88;95.65
10606;BME280;5350;42.698;23.148;2023-04-08T01:31:26;93710.59;;;4.92;95.68
10606;BME280;5350;42.698;23.148;2023-04-08T01:33:53;93711.13;;;4.94;95.40
10606;BME280;5350;42.698;23.148;2023-04-08T01:36:22;93712.66;;;4.95;95.46
10606;BME280;5350;42.698;23.148;2023-04-08T01:38:49;93711.38;;;4.98;95.60
10606;BME280;5350;42.698;23.148;2023-04-08T01:41:17;93713.00;;;5.04;95.49
10606;BME280;5350;42.698;23.148;2023-04-08T01:43:47;93711.69;;;5.06;95.80
10606;BME280;5350;42.698;23.148;2023-04-08T01:46:15;93711.19;;;5.09;96.28
10606;BME280;5350;42.698;23.148;2023-04-08T01:48:43;93715.91;;;5.12;96.65
10606;BME280;5350;42.698;23.148;2023-04-08T01:51:10;93718.78;;;5.16;96.79
10606;BME280;5350;42.698;23.148;2023-04-08T01:53:38;93724.78;;;5.16;96.75
10606;BME280;5350;42.698;23.148;2023-04-08T01:56:08;93725.59;;;5.17;96.96
10606;BME280;5350;42.698;23.148;2023-04-08T01:58:40;93732.34;;;5.13;95.99
10606;BME280;5350;42.698;23.148;2023-04-08T02:01:10;93734.06;;;4.97;96.78
10606;BME280;5350;42.698;23.148;2023-04-08T02:03:39;93737.94;;;4.90;97.57
10606;BME280;5350;42.698;23.148;2023-04-08T02:06:06;93746.28;;;4.92;97.47
10606;BME280;5350;42.698;23.148;2023-04-08T02:08:33;93737.47;;;4.61;98.89
10606;BME280;5350;42.698;23.148;2023-04-08T02:11:00;93742.97;;;4.64;99.29
10606;BME280;5350;42.698;23.148;2023-04-08T02:13:28;93748.97;;;4.70;98.48
10606;BME280;5350;42.698;23.148;2023-04-08T02:16:00;93743.22;;;4.63;99.18
10606;BME280;5350;42.698;23.148;2023-04-08T02:18:31;93745.59;;;4.69;98.62
10606;BME280;5350;42.698;23.148;2023-04-08T02:21:07;93752.00;;;4.57;97.91
10606;BME280;5350;42.698;23.148;2023-04-08T02:23:37;93743.25;;;4.68;96.94
10606;BME280;5350;42.698;23.148;2023-04-08T02:26:07;93741.28;;;4.48;97.00
10606;BME280;5350;42.698;23.148;2023-04-08T02:28:38;93743.88;;;4.48;97.75
10606;BME280;5350;42.698;23.148;2023-04-08T02:31:08;93752.19;;;4.45;98.84
10606;BME280;5350;42.698;23.148;2023-04-08T02:33:39;93744.75;;;4.59;98.11
10606;BME280;5350;42.698;23.148;2023-04-08T02:36:07;93746.13;;;4.71;96.26
10606;BME280;5350;42.698;23.148;2023-04-08T02:38:34;93745.31;;;4.34;97.59
10606;BME280;5350;42.698;23.148;2023-04-08T02:41:00;93754.34;;;4.27;99.30
10606;BME280;5350;42.698;23.148;2023-04-08T02:43:27;93757.31;;;4.35;99.20
10606;BME280;5350;42.698;23.148;2023-04-08T02:45:57;93746.19;;;4.45;99.46
10606;BME280;5350;42.698;23.148;2023-04-08T02:48:25;93746.22;;;4.50;99.00
10606;BME280;5350;42.698;23.148;2023-04-08T02:50:53;93739.28;;;4.60;98.51
10606;BME280;5350;42.698;23.148;2023-04-08T02:53:21;93738.50;;;4.60;97.41
10606;BME280;5350;42.698;23.148;2023-04-08T02:55:48;93736.47;;;4.67;98.00
10606;BME280;5350;42.698;23.148;2023-04-08T02:58:15;93739.53;;;4.59;97.92
10606;BME280;5350;42.698;23.148;2023-04-08T03:00:42;93738.03;;;4.68;94.93
10606;BME280;5350;42.698;23.148;2023-04-08T03:03:08;93734.34;;;4.64;95.73
10606;BME280;5350;42.698;23.148;2023-04-08T03:05:35;93734.59;;;4.62;96.74
10606;BME280;5350;42.698;23.148;2023-04-08T03:08:03;93729.41;;;4.67;98.39
10606;BME280;5350;42.698;23.148;2023-04-08T03:10:31;93735.47;;;4.73;99.53
10606;BME280;5350;42.698;23.148;2023-04-08T03:12:57;93740.47;;;4.79;100.00
10606;BME280;5350;42.698;23.148;2023-04-08T03:15:24;93729.56;;;4.88;100.00
10606;BME280;5350;42.698;23.148;2023-04-08T03:17:51;93739.25;;;4.92;99.27
10606;BME280;5350;42.698;23.148;2023-04-08T03:20:18;93733.00;;;4.93;99.49
10606;BME280;5350;42.698;23.148;2023-04-08T03:22:45;93718.94;;;4.94;98.68
10606;BME280;5350;42.698;23.148;2023-04-08T03:25:13;93732.94;;;4.83;97.79
10606;BME280;5350;42.698;23.148;2023-04-08T03:27:40;93725.06;;;4.78;98.82
10606;BME280;5350;42.698;23.148;2023-04-08T03:30:07;93729.78;;;4.81;99.56
10606;BME280;5350;42.698;23.148;2023-04-08T03:32:34;93732.41;;;4.86;100.00
10606;BME280;5350;42.698;23.148;2023-04-08T03:35:00;93734.03;;;4.92;100.00
10606;BME280;5350;42.698;23.148;2023-04-08T03:37:27;93744.53;;;5.07;98.87
10606;BME280;5350;42.698;23.148;2023-04-08T03:39:54;93742.31;;;4.84;98.49
10606;BME280;5350;42.698;23.148;2023-04-08T03:42:23;93727.72;;;4.83;98.88
10606;BME280;5350;42.698;23.148;2023-04-08T03:44:49;93737.66;;;4.91;99.54
10606;BME280;5350;42.698;23.148;2023-04-08T03:47:16;93731.44;;;4.97;100.00
10606;BME280;5350;42.698;23.148;2023-04-08T03:49:43;93733.31;;;5.02;100.00
10606;BME280;5350;42.698;23.148;2023-04-08T03:52:09;93743.47;;;5.03;100.00
10606;BME280;5350;42.698;23.148;2023-04-08T03:54:36;93748.72;;;5.08;100.00
10606;BME280;5350;42.698;23.148;2023-04-08T03:57:03;93743.53;;;5.08;99.40
10606;BME280;5350;42.698;23.148;2023-04-08T03:59:31;93739.34;;;5.07;99.10
10606;BME280;5350;42.698;23.148;2023-04-08T04:01:59;93738.59;;;5.12;98.88
10606;BME280;5350;42.698;23.148;2023-04-08T04:04:25;93739.41;;;5.22;95.41
10606;BME280;5350;42.698;23.148;2023-04-08T04:06:52;93750.34;;;5.14;94.82
10606;BME280;5350;42.698;23.148;2023-04-08T04:09:20;93738.84;;;5.10;96.21
10606;BME280;5350;42.698;23.148;2023-04-08T04:11:47;93745.59;;;5.11;97.71
10606;BME280;5350;42.698;23.148;2023-04-08T04:14:13;93738.84;;;5.10;98.36
10606;BME280;5350;42.698;23.148;2023-04-08T04:16:42;93747.47;;;5.16;99.50
10606;BME280;5350;42.698;23.148;2023-04-08T04:19:08;93748.78;;;5.18;99.96
10606;BME280;5350;42.698;23.148;2023-04-08T04:21:35;93749.59;;;5.24;99.86
10606;BME280;5350;42.698;23.148;2023-04-08T04:24:02;93748.31;;;5.26;99.79
10606;BME280;5350;42.698;23.148;2023-04-08T04:26:29;93747.78;;;5.24;98.52
10606;BME280;5350;42.698;23.148;2023-04-08T04:28:56;93749.59;;;5.19;99.64
10606;BME280;5350;42.698;23.148;2023-04-08T04:31:23;93756.03;;;5.11;100.00
10606;BME280;5350;42.698;23.148;2023-04-08T04:33:53;93751.91;;;5.15;100.00
10606;BME280;5350;42.698;23.148;2023-04-08T04:36:20;93760.81;;;5.19;100.00
10606;BME280;5350;42.698;23.148;2023-04-08T04:38:48;93748.19;;;5.06;100.00
10606;BME280;5350;42.698;23.148;2023-04-08T04:41:15;93756.78;;;5.02;100.00
10606;BME280;5350;42.698;23.148;2023-04-08T04:43:41;93756.81;;;5.07;100.00
10606;BME280;5350;42.698;23.148;2023-04-08T04:46:08;93755.28;;;5.16;99.19
10606;BME280;5350;42.698;23.148;2023-04-08T04:48:35;93756.31;;;5.10;99.17
10606;BME280;5350;42.698;23.148;2023-04-08T04:51:03;93756.84;;;5.12;99.37
10606;BME280;5350;42.698;23.148;2023-04-08T04:53:31;93749.84;;;5.17;99.22
10606;BME280;5350;42.698;23.148;2023-04-08T04:55:58;93764.44;;;5.18;99.13
10606;BME280;5350;42.698;23.148;2023-04-08T04:58:26;93762.44;;;5.35;97.28
10606;BME280;5350;42.698;23.148;2023-04-08T05:00:53;93759.22;;;5.18;96.49
10606;BME280;5350;42.698;23.148;2023-04-08T05:03:19;93763.69;;;5.23;98.32
10606;BME280;5350;42.698;23.148;2023-04-08T05:05:50;93752.72;;;5.26;98.88
10606;BME280;5350;42.698;23.148;2023-04-08T05:08:18;93761.88;;;5.28;98.85
10606;BME280;5350;42.698;23.148;2023-04-08T05:10:45;93764.53;;;5.33;98.27
10606;BME280;5350;42.698;23.148;2023-04-08T05:13:11;93762.22;;;5.42;97.11
10606;BME280;5350;42.698;23.148;2023-04-08T05:15:38;93770.84;;;5.47;97.13
10606;BME280;5350;42.698;23.148;2023-04-08T05:18:05;93766.75;;;5.56;95.83
10606;BME280;5350;42.698;23.148;2023-04-08T05:20:32;93768.31;;;5.62;95.42
10606;BME280;5350;42.698;23.148;2023-04-08T05:22:58;93770.97;;;5.73;95.43
10606;BME280;5350;42.698;23.148;2023-04-08T05:25:26;93765.72;;;5.67;93.54
10606;BME280;5350;42.698;23.148;2023-04-08T05:27:53;93760.81;;;5.81;93.54
10606;BME280;5350;42.698;23.148;2023-04-08T05:30:20;93765.09;;;5.92;92.50
10606;BME280;5350;42.698;23.148;2023-04-08T05:32:47;93773.47;;;6.04;88.45
10606;BME280;5350;42.698;23.148;2023-04-08T05:35:14;93771.13;;;6.08;87.88
10606;BME280;5350;42.698;23.148;2023-04-08T05:37:40;93782.34;;;6.08;86.33
10606;BME280;5350;42.698;23.148;2023-04-08T05:40:08;93768.50;;;6.08;86.67
10606;BME280;5350;42.698;23.148;2023-04-08T05:42:37;93770.63;;;6.11;87.23
10606;BME280;5350;42.698;23.148;2023-04-08T05:45:04;93769.28;;;6.13;88.60
10606;BME280;5350;42.698;23.148;2023-04-08T05:47:32;93795.47;;;6.23;89.41
10606;BME280;5350;42.698;23.148;2023-04-08T05:49:58;93763.34;;;6.33;88.13
10606;BME280;5350;42.698;23.148;2023-04-08T05:52:25;93774.06;;;6.41;87.55
10606;BME280;5350;42.698;23.148;2023-04-08T05:54:52;93766.78;;;6.49;86.99
10606;BME280;5350;42.698;23.148;2023-04-08T05:57:19;93773.81;;;6.53;85.70
10606;BME280;5350;42.698;23.148;2023-04-08T05:59:47;93770.97;;;6.55;85.08
10606;BME280;5350;42.698;23.148;2023-04-08T06:02:13;93761.56;;;6.59;86.06
10606;BME280;5350;42.698;23.148;2023-04-08T06:04:40;93768.34;;;6.70;86.37
10606;BME280;5350;42.698;23.148;2023-04-08T06:07:07;93767.03;;;6.72;86.33
10606;BME280;5350;42.698;23.148;2023-04-08T06:09:34;93763.63;;;6.77;85.91
10606;BME280;5350;42.698;23.148;2023-04-08T06:12:02;93765.22;;;6.83;86.51
10606;BME280;5350;42.698;23.148;2023-04-08T06:14:28;93761.28;;;6.85;85.25
10606;BME280;5350;42.698;23.148;2023-04-08T06:16:56;93765.72;;;6.95;85.06
10606;BME280;5350;42.698;23.148;2023-04-08T06:19:23;93764.16;;;6.89;84.69
10606;BME280;5350;42.698;23.148;2023-04-08T06:21:50;93763.34;;;7.03;85.00
10606;BME280;5350;42.698;23.148;2023-04-08T06:24:17;93765.22;;;7.03;85.66
10606;BME280;5350;42.698;23.148;2023-04-08T06:26:43;93763.09;;;7.10;85.52
10606;BME280;5350;42.698;23.148;2023-04-08T06:29:10;93772.47;;;7.26;85.08
10606;BME280;5350;42.698;23.148;2023-04-08T06:31:37;93770.38;;;7.28;85.10
10606;BME280;5350;42.698;23.148;2023-04-08T06:34:05;93770.13;;;7.24;84.54
10606;BME280;5350;42.698;23.148;2023-04-08T06:36:32;93767.00;;;7.22;85.04
10606;BME280;5350;42.698;23.148;2023-04-08T06:38:58;93768.00;;;7.37;84.75
10606;BME280;5350;42.698;23.148;2023-04-08T06:41:25;93770.88;;;7.45;84.34
10606;BME280;5350;42.698;23.148;2023-04-08T06:43:52;93766.16;;;7.52;83.93
10606;BME280;5350;42.698;23.148;2023-04-08T06:46:18;93773.94;;;7.72;84.24
10606;BME280;5350;42.698;23.148;2023-04-08T06:48:46;93773.94;;;7.77;82.36
10606;BME280;5350;42.698;23.148;2023-04-08T06:51:14;93782.59;;;7.78;82.14
10606;BME280;5350;42.698;23.148;2023-04-08T06:53:40;93782.03;;;7.86;81.26
10606;BME280;5350;42.698;23.148;2023-04-08T06:56:07;93787.00;;;7.82;80.86
10606;BME280;5350;42.698;23.148;2023-04-08T06:58:34;93783.06;;;7.90;82.62
10606;BME280;5350;42.698;23.148;2023-04-08T07:01:00;93774.09;;;8.01;82.49
10606;BME280;5350;42.698;23.148;2023-04-08T07:03:27;93780.78;;;8.22;80.07
10606;BME280;5350;42.698;23.148;2023-04-08T07:05:54;93788.41;;;8.24;80.29
10606;BME280;5350;42.698;23.148;2023-04-08T07:08:22;93784.72;;;8.25;79.19
10606;BME280;5350;42.698;23.148;2023-04-08T07:10:51;93783.94;;;8.24;79.28
10606;BME280;5350;42.698;23.148;2023-04-08T07:13:18;93791.97;;;8.43;78.81
10606;BME280;5350;42.698;23.148;2023-04-08T07:15:44;93792.78;;;8.43;79.91
10606;BME280;5350;42.698;23.148;2023-04-08T07:18:11;93802.16;;;8.49;78.67
10606;BME280;5350;42.698;23.148;2023-04-08T07:20:38;93800.78;;;8.62;78.86
10606;BME280;5350;42.698;23.148;2023-04-08T07:23:06;93804.69;;;8.69;76.76
10606;BME280;5350;42.698;23.148;2023-04-08T07:25:34;93805.97;;;8.72;77.43
10606;BME280;5350;42.698;23.148;2023-04-08T07:28:01;93801.44;;;8.82;76.39
10606;BME280;5350;42.698;23.148;2023-04-08T07:30:27;93802.94;;;8.94;76.45
10606;BME280;5350;42.698;23.148;2023-04-08T07:32:54;93809.69;;;9.00;73.51
10606;BME280;5350;42.698;23.148;2023-04-08T07:35:22;93806.75;;;8.72;73.99
10606;BME280;5350;42.698;23.148;2023-04-08T07:37:50;93804.63;;;8.79;77.47
10606;BME280;5350;42.698;23.148;2023-04-08T07:40:17;93810.91;;;8.78;76.09
10606;BME280;5350;42.698;23.148;2023-04-08T07:42:45;93812.31;;;9.00;75.23
10606;BME280;5350;42.698;23.148;2023-04-08T07:45:12;93808.81;;;9.14;74.75
10606;BME280;5350;42.698;23.148;2023-04-08T07:47:39;93816.97;;;9.08;73.29
10606;BME280;5350;42.698;23.148;2023-04-08T07:50:06;93818.44;;;9.24;73.85
10606;BME280;5350;42.698;23.148;2023-04-08T07:52:33;93825.56;;;9.18;72.77
10606;BME280;5350;42.698;23.148;2023-04-08T07:55:00;93832.81;;;9.31;73.73
10606;BME280;5350;42.698;23.148;2023-04-08T07:57:27;93846.25;;;9.25;73.06
10606;BME280;5350;42.698;23.148;2023-04-08T07:59:55;93844.63;;;9.29;72.19
10606;BME280;5350;42.698;23.148;2023-04-08T08:02:21;93822.78;;;9.05;73.80
10606;BME280;5350;42.698;23.148;2023-04-08T08:04:48;93819.19;;;8.96;79.97
10606;BME280;5350;42.698;23.148;2023-04-08T08:07:15;93811.47;;;8.75;80.40
10606;BME280;5350;42.698;23.148;2023-04-08T08:09:42;93813.38;;;8.60;81.10
10606;BME280;5350;42.698;23.148;2023-04-08T08:12:08;93823.56;;;8.66;81.93
10606;BME280;5350;42.698;23.148;2023-04-08T08:14:35;93821.38;;;8.83;80.82
10606;BME280;5350;42.698;23.148;2023-04-08T08:17:04;93825.94;;;9.02;78.05
10606;BME280;5350;42.698;23.148;2023-04-08T08:19:30;93826.34;;;9.19;77.70
10606;BME280;5350;42.698;23.148;2023-04-08T08:21:57;93829.38;;;9.36;77.44
10606;BME280;5350;42.698;23.148;2023-04-08T08:24:24;93831.91;;;9.46;73.74
10606;BME280;5350;42.698;23.148;2023-04-08T08:26:51;93839.78;;;9.46;73.42
10606;BME280;5350;42.698;23.148;2023-04-08T08:29:18;93832.28;;;9.63;72.65
10606;BME280;5350;42.698;23.148;2023-04-08T08:31:45;93837.88;;;9.80;73.05
10606;BME280;5350;42.698;23.148;2023-04-08T08:34:14;93829.06;;;9.95;70.16
10606;BME280;5350;42.698;23.148;2023-04-08T08:36:40;93835.94;;;10.14;69.60
10606;BME280;5350;42.698;23.148;2023-04-08T08:39:07;93836.94;;;10.18;69.68
10606;BME280;5350;42.698;23.148;2023-04-08T08:41:34;93828.38;;;10.31;70.77
10606;BME280;5350;42.698;23.148;2023-04-08T08:44:04;93830.69;;;10.38;70.43
10606;BME280;5350;42.698;23.148;2023-04-08T08:46:31;93826.56;;;10.51;67.80
10606;BME280;5350;42.698;23.148;2023-04-08T08:48:58;93832.84;;;10.55;64.91
10606;BME280;5350;42.698;23.148;2023-04-08T08:51:27;93834.03;;;10.62;68.20
10606;BME280;5350;42.698;23.148;2023-04-08T08:53:56;93835.19;;;10.75;64.74
10606;BME280;5350;42.698;23.148;2023-04-08T08:56:26;93835.66;;;10.95;63.96
10606;BME280;5350;42.698;23.148;2023-04-08T08:58:53;93840.19;;;10.95;62.87
10606;BME280;5350;42.698;23.148;2023-04-08T09:01:30;93841.88;;;10.86;61.42
10606;BME280;5350;42.698;23.148;2023-04-08T09:04:06;93834.81;;;11.00;61.60
10606;BME280;5350;42.698;23.148;2023-04-08T09:06:35;93838.88;;;11.11;61.18
10606;BME280;5350;42.698;23.148;2023-04-08T09:09:02;93840.78;;;11.24;62.58
10606;BME280;5350;42.698;23.148;2023-04-08T09:11:30;93829.91;;;11.44;61.49
10606;BME280;5350;42.698;23.148;2023-04-08T09:13:57;93834.31;;;11.67;61.08
10606;BME280;5350;42.698;23.148;2023-04-08T09:16:24;93836.06;;;11.72;60.75
10606;BME280;5350;42.698;23.148;2023-04-08T09:18:51;93835.28;;;11.71;61.12
10606;BME280;5350;42.698;23.148;2023-04-08T09:21:22;93823.81;;;11.94;62.14
10606;BME280;5350;42.698;23.148;2023-04-08T09:23:53;93831.03;;;12.02;62.87
10606;BME280;5350;42.698;23.148;2023-04-08T09:26:21;93825.53;;;11.85;62.82
10606;BME280;5350;42.698;23.148;2023-04-08T09:28:58;93831.31;;;12.01;62.22
10606;BME280;5350;42.698;23.148;2023-04-08T09:31:26;93824.78;;;12.26;60.14
10606;BME280;5350;42.698;23.148;2023-04-08T09:33:55;93827.22;;;12.36;60.63
10606;BME280;5350;42.698;23.148;2023-04-08T09:36:22;93826.44;;;12.49;60.94
10606;BME280;5350;42.698;23.148;2023-04-08T09:38:49;93824.75;;;12.53;61.71
10606;BME280;5350;42.698;23.148;2023-04-08T09:41:17;93812.97;;;12.72;62.86
10606;BME280;5350;42.698;23.148;2023-04-08T09:43:49;93834.22;;;13.03;57.29
10606;BME280;5350;42.698;23.148;2023-04-08T09:46:18;93812.91;;;13.13;58.51
10606;BME280;5350;42.698;23.148;2023-04-08T09:48:57;93802.50;;;13.17;56.70
10606;BME280;5350;42.698;23.148;2023-04-08T09:51:31;93812.91;;;13.13;57.08
10606;BME280;5350;42.698;23.148;2023-04-08T09:54:00;93810.50;;;13.25;57.00
10606;BME280;5350;42.698;23.148;2023-04-08T09:56:35;93807.13;;;13.33;54.96
10606;BME280;5350;42.698;23.148;2023-04-08T09:59:08;93807.97;;;13.42;54.60
10606;BME280;5350;42.698;23.148;2023-04-08T10:01:38;93801.47;;;13.48;54.93
10606;BME280;5350;42.698;23.148;2023-04-08T10:04:10;93789.84;;;13.49;53.57
10606;BME280;5350;42.698;23.148;2023-04-08T10:06:38;93788.41;;;13.74;53.85
10606;BME280;5350;42.698;23.148;2023-04-08T10:09:06;93800.41;;;13.49;53.83
10606;BME280;5350;42.698;23.148;2023-04-08T10:11:35;93800.28;;;13.54;53.73
10606;BME280;5350;42.698;23.148;2023-04-08T10:14:02;93788.16;;;13.84;55.53
10606;BME280;5350;42.698;23.148;2023-04-08T10:16:29;93778.69;;;13.92;55.60
10606;BME280;5350;42.698;23.148;2023-04-08T10:18:56;93780.09;;;13.98;54.14
10606;BME280;5350;42.698;23.148;2023-04-08T10:21:36;93770.66;;;14.05;52.48
10606;BME280;5350;42.698;23.148;2023-04-08T10:24:08;93771.41;;;14.36;52.82
10606;BME280;5350;42.698;23.148;2023-04-08T10:26:40;93771.47;;;14.23;50.93
10606;BME280;5350;42.698;23.148;2023-04-08T10:29:31;93757.72;;;14.43;51.18
10606;BME280;5350;42.698;23.148;2023-04-08T10:31:58;93760.72;;;14.84;52.34
10606;BME280;5350;42.698;23.148;2023-04-08T10:34:25;93755.25;;;15.15;50.74
10606;BME280;5350;42.698;23.148;2023-04-08T10:36:53;93741.97;;;15.41;48.86
10606;BME280;5350;42.698;23.148;2023-04-08T10:39:21;93737.91;;;15.35;47.81
10606;BME280;5350;42.698;23.148;2023-04-08T10:41:49;93737.91;;;15.35;46.35
10606;BME280;5350;42.698;23.148;2023-04-08T10:44:16;93733.44;;;14.67;48.10
10606;BME280;5350;42.698;23.148;2023-04-08T10:46:43;93732.31;;;14.42;49.31
10606;BME280;5350;42.698;23.148;2023-04-08T10:49:10;93732.94;;;14.30;49.31
10606;BME280;5350;42.698;23.148;2023-04-08T10:51:37;93736.31;;;14.14;50.51
10606;BME280;5350;42.698;23.148;2023-04-08T10:54:08;93733.72;;;13.92;50.03
10606;BME280;5350;42.698;23.148;2023-04-08T10:56:35;93727.50;;;13.88;51.51
10606;BME280;5350;42.698;23.148;2023-04-08T10:59:03;93730.47;;;13.86;51.90
10606;BME280;5350;42.698;23.148;2023-04-08T11:01:37;93718.56;;;14.06;52.24
10606;BME280;5350;42.698;23.148;2023-04-08T11:04:10;93719.16;;;14.03;53.47
10606;BME280;5350;42.698;23.148;2023-04-08T11:06:37;93722.31;;;13.74;52.71
10606;BME280;5350;42.698;23.148;2023-04-08T11:09:04;93720.00;;;13.81;52.49
10606;BME280;5350;42.698;23.148;2023-04-08T11:11:31;93708.84;;;13.84;52.80
10606;BME280;5350;42.698;23.148;2023-04-08T11:13:58;93717.44;;;13.28;53.42
10606;BME280;5350;42.698;23.148;2023-04-08T11:16:27;93711.50;;;13.23;54.80
10606;BME280;5350;42.698;23.148;2023-04-08T11:18:54;93704.38;;;13.23;54.64
10606;BME280;5350;42.698;23.148;2023-04-08T11:21:22;93704.31;;;13.15;54.18
10606;BME280;5350;42.698;23.148;2023-04-08T11:23:54;93699.22;;;13.18;54.13
10606;BME280;5350;42.698;23.148;2023-04-08T11:26:22;93699.25;;;13.27;55.91
10606;BME280;5350;42.698;23.148;2023-04-08T11:28:49;93693.69;;;13.28;57.10
10606;BME280;5350;42.698;23.148;2023-04-08T11:31:17;93698.59;;;13.21;55.53
10606;BME280;5350;42.698;23.148;2023-04-08T11:33:46;93695.06;;;13.26;54.25
10606;BME280;5350;42.698;23.148;2023-04-08T11:36:14;93690.78;;;13.16;55.49
10606;BME280;5350;42.698;23.148;2023-04-08T11:38:40;93691.59;;;13.17;55.57
10606;BME280;5350;42.698;23.148;2023-04-08T11:41:08;93691.94;;;12.79;55.18
10606;BME280;5350;42.698;23.148;2023-04-08T11:43:35;93703.47;;;12.83;57.31
10606;BME280;5350;42.698;23.148;2023-04-08T11:46:12;93697.22;;;12.79;56.41
10606;BME280;5350;42.698;23.148;2023-04-08T11:48:39;93689.47;;;12.61;56.58
10606;BME280;5350;42.698;23.148;2023-04-08T11:51:07;93694.19;;;12.64;58.06
10606;BME280;5350;42.698;23.148;2023-04-08T11:53:34;93697.88;;;12.63;56.28
10606;BME280;5350;42.698;23.148;2023-04-08T11:56:17;93693.06;;;12.43;56.42
10606;BME280;5350;42.698;23.148;2023-04-08T11:58:44;93690.13;;;12.44;56.88
10606;BME280;5350;42.698;23.148;2023-04-08T12:01:12;93693.72;;;12.48;57.12
10606;BME280;5350;42.698;23.148;2023-04-08T12:03:41;93690.34;;;12.34;56.64
10606;BME280;5350;42.698;23.148;2023-04-08T12:06:19;93697.81;;;12.19;55.78
10606;BME280;5350;42.698;23.148;2023-04-08T12:08:46;93695.03;;;12.37;56.65
10606;BME280;5350;42.698;23.148;2023-04-08T12:11:13;93692.84;;;12.53;56.31
10606;BME280;5350;42.698;23.148;2023-04-08T12:13:40;93685.09;;;12.56;55.16
10606;BME280;5350;42.698;23.148;2023-04-08T12:16:07;93690.19;;;12.53;54.95
10606;BME280;5350;42.698;23.148;2023-04-08T12:18:34;93687.69;;;12.70;57.34
10606;BME280;5350;42.698;23.148;2023-04-08T12:21:01;93688.28;;;12.67;55.85
10606;BME280;5350;42.698;23.148;2023-04-08T12:23:29;93689.38;;;12.88;54.46
10606;BME280;5350;42.698;23.148;2023-04-08T12:25:56;93662.19;;;12.88;53.03
10606;BME280;5350;42.698;23.148;2023-04-08T12:28:22;93678.00;;;13.32;51.71
10606;BME280;5350;42.698;23.148;2023-04-08T12:30:49;93673.47;;;13.63;51.75
10606;BME280;5350;42.698;23.148;2023-04-08T12:33:16;93675.91;;;13.99;51.45
10606;BME280;5350;42.698;23.148;2023-04-08T12:35:43;93673.38;;;13.94;49.15
10606;BME280;5350;42.698;23.148;2023-04-08T12:38:10;93677.44;;;14.00;48.53
10606;BME280;5350;42.698;23.148;2023-04-08T12:40:38;93676.69;;;14.08;48.31
10606;BME280;5350;42.698;23.148;2023-04-08T12:43:05;93681.13;;;14.38;46.63
10606;BME280;5350;42.698;23.148;2023-04-08T12:45:32;93672.53;;;14.58;46.50
10606;BME280;5350;42.698;23.148;2023-04-08T12:47:58;93675.66;;;14.34;46.26
10606;BME280;5350;42.698;23.148;2023-04-08T12:50:25;93681.13;;;14.55;46.90
10606;BME280;5350;42.698;23.148;2023-04-08T12:52:52;93671.00;;;14.57;46.08
10606;BME280;5350;42.698;23.148;2023-04-08T12:55:19;93675.66;;;14.77;46.33
10606;BME280;5350;42.698;23.148;2023-04-08T12:57:50;93669.28;;;14.70;45.24
10606;BME280;5350;42.698;23.148;2023-04-08T13:00:17;93664.13;;;14.65;44.85
10606;BME280;5350;42.698;23.148;2023-04-08T13:02:44;93670.69;;;14.50;45.16
10606;BME280;5350;42.698;23.148;2023-04-08T13:05:11;93664.31;;;14.43;47.17
10606;BME280;5350;42.698;23.148;2023-04-08T13:07:37;93662.91;;;14.45;47.82
10606;BME280;5350;42.698;23.148;2023-04-08T13:10:06;93667.56;;;14.31;48.90
10606;BME280;5350;42.698;23.148;2023-04-08T13:12:33;93659.81;;;14.60;48.65